sensor_id;sensor_type;location;lat;lon;timestamp;P1;durP1;ratioP1;P2;durP2;ratioP2
4933;SDS011;2482;49.154;8.254;2023-03-03T00:01:17;37.50;;;22.77;;
4933;SDS011;2482;49.154;8.254;2023-03-03T00:03:44;40.63;;;23.50;;
4933;SDS011;2482;49.154;8.254;2023-03-03T00:06:12;38.13;;;22.50;;
4933;SDS011;2482;49.154;8.254;2023-03-03T00:08:40;40.30;;;22.33;;
4933;SDS011;2482;49.154;8.254;2023-03-03T00:11:08;40.77;;;23.27;;
4933;SDS011;2482;49.154;8.254;2023-03-03T00:16:24;40.90;;;22.83;;
4933;SDS011;2482;49.154;8.254;2023-03-03T00:18:56;38.30;;;22.27;;
4933;SDS011;2482;49.154;8.254;2023-03-03T00:21:29;34.97;;;21.63;;
4933;SDS011;2482;49.154;8.254;2023-03-03T00:26:44;47.40;;;22.80;;
4933;SDS011;2482;49.154;8.254;2023-03-03T00:29:25;37.07;;;23.20;;
4933;SDS011;2482;49.154;8.254;2023-03-03T00:32:18;40.50;;;22.00;;
4933;SDS011;2482;49.154;8.254;2023-03-03T00:34:53;39.17;;;21.87;;
4933;SDS011;2482;49.154;8.254;2023-03-03T00:37:27;37.50;;;22.07;;
4933;SDS011;2482;49.154;8.254;2023-03-03T00:42:53;39.30;;;22.53;;
4933;SDS011;2482;49.154;8.254;2023-03-03T00:48:10;43.30;;;23.20;;
4933;SDS011;2482;49.154;8.254;2023-03-03T00:50:58;45.90;;;23.00;;
4933;SDS011;2482;49.154;8.254;2023-03-03T00:53:28;39.27;;;22.63;;
4933;SDS011;2482;49.154;8.254;2023-03-03T00:55:56;40.40;;;23.47;;
4933;SDS011;2482;49.154;8.254;2023-03-03T00:58:23;42.70;;;23.77;;
4933;SDS011;2482;49.154;8.254;2023-03-03T01:00:53;43.90;;;23.80;;
4933;SDS011;2482;49.154;8.254;2023-03-03T01:03:22;44.33;;;23.67;;
4933;SDS011;2482;49.154;8.254;2023-03-03T01:05:52;40.33;;;22.00;;
4933;SDS011;2482;49.154;8.254;2023-03-03T01:08:19;49.13;;;24.17;;
4933;SDS011;2482;49.154;8.254;2023-03-03T01:10:48;37.20;;;21.60;;
4933;SDS011;2482;49.154;8.254;2023-03-03T01:13:23;40.40;;;22.73;;
4933;SDS011;2482;49.154;8.254;2023-03-03T01:15:57;37.80;;;22.17;;
4933;SDS011;2482;49.154;8.254;2023-03-03T01:18:26;40.90;;;22.00;;
4933;SDS011;2482;49.154;8.254;2023-03-03T01:20:53;43.80;;;23.40;;
4933;SDS011;2482;49.154;8.254;2023-03-03T01:23:20;37.43;;;22.37;;
4933;SDS011;2482;49.154;8.254;2023-03-03T01:25:47;43.27;;;21.37;;
4933;SDS011;2482;49.154;8.254;2023-03-03T01:28:14;36.17;;;21.03;;
4933;SDS011;2482;49.154;8.254;2023-03-03T01:30:41;37.63;;;21.97;;
4933;SDS011;2482;49.154;8.254;2023-03-03T01:33:08;42.03;;;21.47;;
4933;SDS011;2482;49.154;8.254;2023-03-03T01:35:35;43.07;;;22.27;;
4933;SDS011;2482;49.154;8.254;2023-03-03T01:38:02;39.37;;;22.13;;
4933;SDS011;2482;49.154;8.254;2023-03-03T01:40:29;41.50;;;22.40;;
4933;SDS011;2482;49.154;8.254;2023-03-03T01:43:00;38.37;;;21.47;;
4933;SDS011;2482;49.154;8.254;2023-03-03T01:45:28;33.17;;;18.43;;
4933;SDS011;2482;49.154;8.254;2023-03-03T01:48:13;38.67;;;22.10;;
4933;SDS011;2482;49.154;8.254;2023-03-03T01:50:56;37.73;;;21.13;;
4933;SDS011;2482;49.154;8.254;2023-03-03T01:53:40;35.23;;;21.03;;
4933;SDS011;2482;49.154;8.254;2023-03-03T01:56:11;36.87;;;20.90;;
4933;SDS011;2482;49.154;8.254;2023-03-03T01:58:46;37.67;;;20.80;;
4933;SDS011;2482;49.154;8.254;2023-03-03T02:01:46;36.60;;;20.80;;
4933;SDS011;2482;49.154;8.254;2023-03-03T02:04:14;39.10;;;22.30;;
4933;SDS011;2482;49.154;8.254;2023-03-03T02:06:44;31.47;;;19.70;;
4933;SDS011;2482;49.154;8.254;2023-03-03T02:09:37;37.43;;;21.50;;
4933;SDS011;2482;49.154;8.254;2023-03-03T02:12:29;37.53;;;20.90;;
4933;SDS011;2482;49.154;8.254;2023-03-03T02:15:10;34.63;;;20.63;;
4933;SDS011;2482;49.154;8.254;2023-03-03T02:17:59;39.17;;;22.40;;
4933;SDS011;2482;49.154;8.254;2023-03-03T02:26:11;38.70;;;22.40;;
4933;SDS011;2482;49.154;8.254;2023-03-03T02:28:41;38.87;;;21.47;;
4933;SDS011;2482;49.154;8.254;2023-03-03T02:31:10;36.90;;;21.73;;
4933;SDS011;2482;49.154;8.254;2023-03-03T02:33:41;37.00;;;21.03;;
4933;SDS011;2482;49.154;8.254;2023-03-03T02:36:12;40.57;;;20.70;;
4933;SDS011;2482;49.154;8.254;2023-03-03T02:41:38;37.80;;;22.77;;
4933;SDS011;2482;49.154;8.254;2023-03-03T02:44:19;40.60;;;22.30;;
4933;SDS011;2482;49.154;8.254;2023-03-03T02:46:50;52.07;;;23.37;;
4933;SDS011;2482;49.154;8.254;2023-03-03T02:49:20;42.63;;;21.37;;
4933;SDS011;2482;49.154;8.254;2023-03-03T02:51:50;36.83;;;21.00;;
4933;SDS011;2482;49.154;8.254;2023-03-03T02:54:19;36.93;;;19.77;;
4933;SDS011;2482;49.154;8.254;2023-03-03T02:56:48;31.97;;;19.47;;
4933;SDS011;2482;49.154;8.254;2023-03-03T02:59:16;41.07;;;21.50;;
4933;SDS011;2482;49.154;8.254;2023-03-03T03:01:43;41.13;;;19.97;;
4933;SDS011;2482;49.154;8.254;2023-03-03T03:04:12;39.27;;;22.00;;
4933;SDS011;2482;49.154;8.254;2023-03-03T03:06:42;34.63;;;20.97;;
4933;SDS011;2482;49.154;8.254;2023-03-03T03:09:12;35.13;;;19.93;;
4933;SDS011;2482;49.154;8.254;2023-03-03T03:11:41;34.60;;;20.37;;
4933;SDS011;2482;49.154;8.254;2023-03-03T03:14:09;33.17;;;19.33;;
4933;SDS011;2482;49.154;8.254;2023-03-03T03:16:38;39.97;;;21.90;;
4933;SDS011;2482;49.154;8.254;2023-03-03T03:19:05;35.43;;;20.07;;
4933;SDS011;2482;49.154;8.254;2023-03-03T03:21:33;37.37;;;19.60;;
4933;SDS011;2482;49.154;8.254;2023-03-03T03:24:00;36.60;;;20.80;;
4933;SDS011;2482;49.154;8.254;2023-03-03T03:26:27;37.83;;;20.33;;
4933;SDS011;2482;49.154;8.254;2023-03-03T03:28:54;35.03;;;20.10;;
4933;SDS011;2482;49.154;8.254;2023-03-03T03:31:21;39.80;;;20.43;;
4933;SDS011;2482;49.154;8.254;2023-03-03T03:33:48;32.57;;;18.93;;
4933;SDS011;2482;49.154;8.254;2023-03-03T03:36:16;36.20;;;19.47;;
4933;SDS011;2482;49.154;8.254;2023-03-03T03:38:43;42.40;;;20.30;;
4933;SDS011;2482;49.154;8.254;2023-03-03T03:41:10;35.60;;;19.00;;
4933;SDS011;2482;49.154;8.254;2023-03-03T03:43:38;32.93;;;18.77;;
4933;SDS011;2482;49.154;8.254;2023-03-03T03:46:06;38.90;;;20.57;;
4933;SDS011;2482;49.154;8.254;2023-03-03T03:48:33;37.03;;;19.43;;
4933;SDS011;2482;49.154;8.254;2023-03-03T03:51:00;32.57;;;18.37;;
4933;SDS011;2482;49.154;8.254;2023-03-03T03:53:28;32.97;;;17.53;;
4933;SDS011;2482;49.154;8.254;2023-03-03T03:55:55;32.23;;;18.90;;
4933;SDS011;2482;49.154;8.254;2023-03-03T03:58:22;26.20;;;16.13;;
4933;SDS011;2482;49.154;8.254;2023-03-03T04:00:49;31.77;;;17.43;;
4933;SDS011;2482;49.154;8.254;2023-03-03T04:03:16;23.80;;;14.60;;
4933;SDS011;2482;49.154;8.254;2023-03-03T04:05:44;23.00;;;13.87;;
4933;SDS011;2482;49.154;8.254;2023-03-03T04:08:11;19.33;;;12.07;;
4933;SDS011;2482;49.154;8.254;2023-03-03T04:10:38;20.50;;;10.47;;
4933;SDS011;2482;49.154;8.254;2023-03-03T04:13:05;23.20;;;11.90;;
4933;SDS011;2482;49.154;8.254;2023-03-03T04:15:32;18.77;;;11.30;;
4933;SDS011;2482;49.154;8.254;2023-03-03T04:17:59;18.77;;;11.03;;
4933;SDS011;2482;49.154;8.254;2023-03-03T04:20:26;20.13;;;10.50;;
4933;SDS011;2482;49.154;8.254;2023-03-03T04:22:54;15.67;;;10.57;;
4933;SDS011;2482;49.154;8.254;2023-03-03T04:25:22;16.40;;;10.97;;
4933;SDS011;2482;49.154;8.254;2023-03-03T04:27:49;23.87;;;13.80;;
4933;SDS011;2482;49.154;8.254;2023-03-03T04:30:18;23.10;;;13.00;;
4933;SDS011;2482;49.154;8.254;2023-03-03T04:32:45;16.43;;;9.93;;
4933;SDS011;2482;49.154;8.254;2023-03-03T04:35:13;16.27;;;10.30;;
4933;SDS011;2482;49.154;8.254;2023-03-03T04:37:39;13.47;;;9.63;;
4933;SDS011;2482;49.154;8.254;2023-03-03T04:40:07;17.57;;;9.70;;
4933;SDS011;2482;49.154;8.254;2023-03-03T04:42:35;14.63;;;9.40;;
4933;SDS011;2482;49.154;8.254;2023-03-03T04:45:03;14.33;;;9.23;;
4933;SDS011;2482;49.154;8.254;2023-03-03T04:47:30;14.20;;;9.50;;
4933;SDS011;2482;49.154;8.254;2023-03-03T04:49:58;13.57;;;8.77;;
4933;SDS011;2482;49.154;8.254;2023-03-03T04:52:26;16.67;;;9.40;;
4933;SDS011;2482;49.154;8.254;2023-03-03T04:54:53;15.17;;;9.40;;
4933;SDS011;2482;49.154;8.254;2023-03-03T04:57:20;16.00;;;9.13;;
4933;SDS011;2482;49.154;8.254;2023-03-03T04:59:47;15.17;;;10.33;;
4933;SDS011;2482;49.154;8.254;2023-03-03T05:02:14;15.47;;;9.60;;
4933;SDS011;2482;49.154;8.254;2023-03-03T05:04:42;15.77;;;9.97;;
4933;SDS011;2482;49.154;8.254;2023-03-03T05:07:09;16.23;;;9.80;;
4933;SDS011;2482;49.154;8.254;2023-03-03T05:09:36;12.33;;;9.13;;
4933;SDS011;2482;49.154;8.254;2023-03-03T05:12:03;16.10;;;10.40;;
4933;SDS011;2482;49.154;8.254;2023-03-03T05:14:30;19.33;;;11.03;;
4933;SDS011;2482;49.154;8.254;2023-03-03T05:16:57;16.77;;;9.93;;
4933;SDS011;2482;49.154;8.254;2023-03-03T05:19:24;14.90;;;10.00;;
4933;SDS011;2482;49.154;8.254;2023-03-03T05:21:51;16.97;;;10.07;;
4933;SDS011;2482;49.154;8.254;2023-03-03T05:24:18;15.80;;;10.73;;
4933;SDS011;2482;49.154;8.254;2023-03-03T05:26:45;14.83;;;11.57;;
4933;SDS011;2482;49.154;8.254;2023-03-03T05:29:12;18.03;;;11.37;;
4933;SDS011;2482;49.154;8.254;2023-03-03T05:31:39;21.03;;;12.00;;
4933;SDS011;2482;49.154;8.254;2023-03-03T05:34:09;19.60;;;11.47;;
4933;SDS011;2482;49.154;8.254;2023-03-03T05:36:36;17.20;;;12.10;;
4933;SDS011;2482;49.154;8.254;2023-03-03T05:39:03;19.57;;;11.70;;
4933;SDS011;2482;49.154;8.254;2023-03-03T05:41:30;18.17;;;11.50;;
4933;SDS011;2482;49.154;8.254;2023-03-03T05:43:57;19.87;;;12.27;;
4933;SDS011;2482;49.154;8.254;2023-03-03T05:46:24;20.73;;;12.33;;
4933;SDS011;2482;49.154;8.254;2023-03-03T05:48:51;19.03;;;12.10;;
4933;SDS011;2482;49.154;8.254;2023-03-03T05:51:18;21.17;;;12.97;;
4933;SDS011;2482;49.154;8.254;2023-03-03T05:53:45;21.83;;;13.90;;
4933;SDS011;2482;49.154;8.254;2023-03-03T05:56:12;24.50;;;13.50;;
4933;SDS011;2482;49.154;8.254;2023-03-03T05:58:39;20.87;;;13.43;;
4933;SDS011;2482;49.154;8.254;2023-03-03T06:01:07;18.53;;;12.37;;
4933;SDS011;2482;49.154;8.254;2023-03-03T06:03:34;21.43;;;13.47;;
4933;SDS011;2482;49.154;8.254;2023-03-03T06:06:00;24.00;;;14.07;;
4933;SDS011;2482;49.154;8.254;2023-03-03T06:08:27;24.90;;;15.27;;
4933;SDS011;2482;49.154;8.254;2023-03-03T06:10:55;20.50;;;13.97;;
4933;SDS011;2482;49.154;8.254;2023-03-03T06:13:22;27.23;;;16.37;;
4933;SDS011;2482;49.154;8.254;2023-03-03T06:15:49;26.10;;;15.90;;
4933;SDS011;2482;49.154;8.254;2023-03-03T06:18:16;25.50;;;15.03;;
4933;SDS011;2482;49.154;8.254;2023-03-03T06:20:43;25.97;;;15.20;;
4933;SDS011;2482;49.154;8.254;2023-03-03T06:23:10;24.03;;;15.10;;
4933;SDS011;2482;49.154;8.254;2023-03-03T06:25:37;29.40;;;17.23;;
4933;SDS011;2482;49.154;8.254;2023-03-03T06:28:04;28.43;;;16.83;;
4933;SDS011;2482;49.154;8.254;2023-03-03T06:30:31;27.43;;;15.50;;
4933;SDS011;2482;49.154;8.254;2023-03-03T06:32:58;25.10;;;16.73;;
4933;SDS011;2482;49.154;8.254;2023-03-03T06:35:25;28.00;;;17.83;;
4933;SDS011;2482;49.154;8.254;2023-03-03T06:37:52;27.27;;;16.90;;
4933;SDS011;2482;49.154;8.254;2023-03-03T06:40:20;31.83;;;17.07;;
4933;SDS011;2482;49.154;8.254;2023-03-03T06:42:47;25.93;;;16.73;;
4933;SDS011;2482;49.154;8.254;2023-03-03T06:45:14;28.70;;;18.13;;
4933;SDS011;2482;49.154;8.254;2023-03-03T06:47:41;32.40;;;18.50;;
4933;SDS011;2482;49.154;8.254;2023-03-03T06:50:11;31.20;;;18.90;;
4933;SDS011;2482;49.154;8.254;2023-03-03T06:52:38;28.53;;;17.77;;
4933;SDS011;2482;49.154;8.254;2023-03-03T06:55:09;28.90;;;18.37;;
4933;SDS011;2482;49.154;8.254;2023-03-03T06:57:55;33.47;;;18.43;;
4933;SDS011;2482;49.154;8.254;2023-03-03T07:00:22;28.93;;;17.93;;
4933;SDS011;2482;49.154;8.254;2023-03-03T07:03:14;30.07;;;19.30;;
4933;SDS011;2482;49.154;8.254;2023-03-03T07:05:45;32.70;;;17.30;;
4933;SDS011;2482;49.154;8.254;2023-03-03T07:08:13;63.43;;;31.60;;
4933;SDS011;2482;49.154;8.254;2023-03-03T07:10:46;39.60;;;21.33;;
4933;SDS011;2482;49.154;8.254;2023-03-03T07:13:16;26.93;;;17.77;;
4933;SDS011;2482;49.154;8.254;2023-03-03T07:15:58;28.00;;;17.27;;
4933;SDS011;2482;49.154;8.254;2023-03-03T07:26:59;28.70;;;17.83;;
4933;SDS011;2482;49.154;8.254;2023-03-03T07:29:33;29.60;;;18.50;;
4933;SDS011;2482;49.154;8.254;2023-03-03T07:32:00;27.80;;;17.53;;
4933;SDS011;2482;49.154;8.254;2023-03-03T07:37:15;30.60;;;19.00;;
4933;SDS011;2482;49.154;8.254;2023-03-03T07:40:28;33.73;;;19.97;;
4933;SDS011;2482;49.154;8.254;2023-03-03T07:43:13;31.83;;;19.40;;
4933;SDS011;2482;49.154;8.254;2023-03-03T07:46:13;32.93;;;18.60;;
4933;SDS011;2482;49.154;8.254;2023-03-03T07:48:56;36.17;;;20.27;;
4933;SDS011;2482;49.154;8.254;2023-03-03T07:51:26;35.20;;;20.27;;
4933;SDS011;2482;49.154;8.254;2023-03-03T07:54:44;30.73;;;19.70;;
4933;SDS011;2482;49.154;8.254;2023-03-03T07:59:53;33.30;;;19.67;;
4933;SDS011;2482;49.154;8.254;2023-03-03T08:02:52;31.87;;;19.87;;
4933;SDS011;2482;49.154;8.254;2023-03-03T08:08:02;33.97;;;20.73;;
4933;SDS011;2482;49.154;8.254;2023-03-03T08:10:57;39.47;;;22.20;;
4933;SDS011;2482;49.154;8.254;2023-03-03T08:18:52;31.67;;;20.90;;
4933;SDS011;2482;49.154;8.254;2023-03-03T08:21:20;33.67;;;21.03;;
4933;SDS011;2482;49.154;8.254;2023-03-03T08:23:51;33.80;;;21.77;;
4933;SDS011;2482;49.154;8.254;2023-03-03T08:26:24;36.47;;;21.50;;
4933;SDS011;2482;49.154;8.254;2023-03-03T08:28:52;36.17;;;20.50;;
4933;SDS011;2482;49.154;8.254;2023-03-03T08:31:20;35.50;;;21.27;;
4933;SDS011;2482;49.154;8.254;2023-03-03T08:34:05;35.80;;;21.27;;
4933;SDS011;2482;49.154;8.254;2023-03-03T08:36:32;36.80;;;21.20;;
4933;SDS011;2482;49.154;8.254;2023-03-03T08:39:00;35.77;;;22.47;;
4933;SDS011;2482;49.154;8.254;2023-03-03T08:41:29;30.53;;;19.80;;
4933;SDS011;2482;49.154;8.254;2023-03-03T08:43:56;37.00;;;21.23;;
4933;SDS011;2482;49.154;8.254;2023-03-03T08:46:24;35.10;;;20.97;;
4933;SDS011;2482;49.154;8.254;2023-03-03T08:48:51;37.27;;;21.90;;
4933;SDS011;2482;49.154;8.254;2023-03-03T08:51:18;30.87;;;19.17;;
4933;SDS011;2482;49.154;8.254;2023-03-03T08:53:45;32.63;;;21.07;;
4933;SDS011;2482;49.154;8.254;2023-03-03T08:56:12;35.80;;;21.33;;
4933;SDS011;2482;49.154;8.254;2023-03-03T08:58:39;36.27;;;20.53;;
4933;SDS011;2482;49.154;8.254;2023-03-03T09:01:27;35.43;;;20.17;;
4933;SDS011;2482;49.154;8.254;2023-03-03T09:03:54;36.43;;;21.13;;
4933;SDS011;2482;49.154;8.254;2023-03-03T09:06:21;36.20;;;20.77;;
4933;SDS011;2482;49.154;8.254;2023-03-03T09:08:48;31.83;;;19.27;;
4933;SDS011;2482;49.154;8.254;2023-03-03T09:11:21;34.10;;;20.40;;
4933;SDS011;2482;49.154;8.254;2023-03-03T09:14:12;33.20;;;20.50;;
4933;SDS011;2482;49.154;8.254;2023-03-03T09:16:44;32.37;;;20.13;;
4933;SDS011;2482;49.154;8.254;2023-03-03T09:19:25;33.13;;;19.90;;
4933;SDS011;2482;49.154;8.254;2023-03-03T09:22:10;33.43;;;19.30;;
4933;SDS011;2482;49.154;8.254;2023-03-03T09:24:51;32.47;;;20.13;;
4933;SDS011;2482;49.154;8.254;2023-03-03T09:27:24;33.57;;;20.20;;
4933;SDS011;2482;49.154;8.254;2023-03-03T09:30:00;34.43;;;20.53;;
4933;SDS011;2482;49.154;8.254;2023-03-03T09:32:53;30.30;;;19.73;;
4933;SDS011;2482;49.154;8.254;2023-03-03T09:38:01;31.33;;;19.83;;
4933;SDS011;2482;49.154;8.254;2023-03-03T09:41:15;35.77;;;20.30;;
4933;SDS011;2482;49.154;8.254;2023-03-03T09:44:11;30.73;;;19.33;;
4933;SDS011;2482;49.154;8.254;2023-03-03T10:07:17;33.70;;;19.57;;
4933;SDS011;2482;49.154;8.254;2023-03-03T10:10:10;33.67;;;19.97;;
4933;SDS011;2482;49.154;8.254;2023-03-03T10:22:17;36.50;;;21.80;;
4933;SDS011;2482;49.154;8.254;2023-03-03T10:28:26;33.43;;;19.80;;
4933;SDS011;2482;49.154;8.254;2023-03-03T10:50:09;31.87;;;18.97;;
4933;SDS011;2482;49.154;8.254;2023-03-03T10:52:43;35.40;;;21.37;;
4933;SDS011;2482;49.154;8.254;2023-03-03T11:00:48;31.00;;;19.73;;
4933;SDS011;2482;49.154;8.254;2023-03-03T11:06:00;35.87;;;22.90;;
4933;SDS011;2482;49.154;8.254;2023-03-03T11:08:40;34.20;;;20.33;;
4933;SDS011;2482;49.154;8.254;2023-03-03T11:14:12;29.10;;;18.90;;
4933;SDS011;2482;49.154;8.254;2023-03-03T11:19:51;31.23;;;19.20;;
4933;SDS011;2482;49.154;8.254;2023-03-03T11:37:23;34.00;;;20.00;;
4933;SDS011;2482;49.154;8.254;2023-03-03T11:40:13;35.93;;;20.83;;
4933;SDS011;2482;49.154;8.254;2023-03-03T11:46:37;34.37;;;21.10;;
4933;SDS011;2482;49.154;8.254;2023-03-03T11:49:27;33.20;;;20.70;;
4933;SDS011;2482;49.154;8.254;2023-03-03T12:03:55;35.27;;;21.30;;
4933;SDS011;2482;49.154;8.254;2023-03-03T12:21:33;41.50;;;23.87;;
4933;SDS011;2482;49.154;8.254;2023-03-03T12:29:55;38.77;;;21.73;;
4933;SDS011;2482;49.154;8.254;2023-03-03T12:41:26;36.83;;;21.27;;
4933;SDS011;2482;49.154;8.254;2023-03-03T12:44:20;31.70;;;20.37;;
4933;SDS011;2482;49.154;8.254;2023-03-03T12:47:15;34.63;;;21.50;;
4933;SDS011;2482;49.154;8.254;2023-03-03T12:58:35;36.93;;;21.20;;
4933;SDS011;2482;49.154;8.254;2023-03-03T13:04:25;37.53;;;22.67;;
4933;SDS011;2482;49.154;8.254;2023-03-03T13:09:56;32.47;;;20.80;;
4933;SDS011;2482;49.154;8.254;2023-03-03T13:12:44;33.43;;;20.20;;
4933;SDS011;2482;49.154;8.254;2023-03-03T13:15:40;36.70;;;20.63;;
4933;SDS011;2482;49.154;8.254;2023-03-03T13:21:05;35.93;;;20.03;;
4933;SDS011;2482;49.154;8.254;2023-03-03T13:24:13;35.97;;;21.47;;
4933;SDS011;2482;49.154;8.254;2023-03-03T13:26:52;33.73;;;21.80;;
4933;SDS011;2482;49.154;8.254;2023-03-03T13:29:36;37.17;;;21.83;;
4933;SDS011;2482;49.154;8.254;2023-03-03T13:34:58;39.87;;;22.90;;
4933;SDS011;2482;49.154;8.254;2023-03-03T13:37:37;35.53;;;20.83;;
4933;SDS011;2482;49.154;8.254;2023-03-03T13:45:34;34.60;;;20.43;;
4933;SDS011;2482;49.154;8.254;2023-03-03T13:48:25;32.87;;;19.63;;
4933;SDS011;2482;49.154;8.254;2023-03-03T13:50:57;37.17;;;21.17;;
4933;SDS011;2482;49.154;8.254;2023-03-03T14:06:08;38.27;;;21.27;;
4933;SDS011;2482;49.154;8.254;2023-03-03T14:17:17;36.00;;;21.27;;
4933;SDS011;2482;49.154;8.254;2023-03-03T14:22:57;35.60;;;21.90;;
4933;SDS011;2482;49.154;8.254;2023-03-03T14:25:48;34.00;;;20.07;;
4933;SDS011;2482;49.154;8.254;2023-03-03T14:28:42;34.40;;;20.23;;
4933;SDS011;2482;49.154;8.254;2023-03-03T14:36:42;37.97;;;19.80;;
4933;SDS011;2482;49.154;8.254;2023-03-03T14:45:22;33.63;;;20.17;;
4933;SDS011;2482;49.154;8.254;2023-03-03T14:55:46;29.33;;;18.90;;
4933;SDS011;2482;49.154;8.254;2023-03-03T14:58:26;36.83;;;20.20;;
4933;SDS011;2482;49.154;8.254;2023-03-03T15:01:33;32.00;;;19.47;;
4933;SDS011;2482;49.154;8.254;2023-03-03T15:04:01;33.20;;;21.13;;
4933;SDS011;2482;49.154;8.254;2023-03-03T15:06:43;34.60;;;20.57;;
4933;SDS011;2482;49.154;8.254;2023-03-03T15:09:30;37.40;;;21.40;;
4933;SDS011;2482;49.154;8.254;2023-03-03T15:15:01;35.63;;;20.00;;
4933;SDS011;2482;49.154;8.254;2023-03-03T15:26:03;34.83;;;19.30;;
4933;SDS011;2482;49.154;8.254;2023-03-03T15:29:07;30.10;;;18.40;;
4933;SDS011;2482;49.154;8.254;2023-03-03T15:42:49;30.20;;;18.10;;
4933;SDS011;2482;49.154;8.254;2023-03-03T15:48:35;26.57;;;16.97;;
4933;SDS011;2482;49.154;8.254;2023-03-03T15:51:31;27.60;;;16.37;;
4933;SDS011;2482;49.154;8.254;2023-03-03T16:00:20;29.50;;;16.93;;
4933;SDS011;2482;49.154;8.254;2023-03-03T16:02:59;29.90;;;17.10;;
4933;SDS011;2482;49.154;8.254;2023-03-03T16:17:30;31.03;;;16.13;;
4933;SDS011;2482;49.154;8.254;2023-03-03T16:20:20;25.60;;;14.90;;
4933;SDS011;2482;49.154;8.254;2023-03-03T16:23:08;24.57;;;14.40;;
4933;SDS011;2482;49.154;8.254;2023-03-03T16:31:16;24.13;;;14.63;;
4933;SDS011;2482;49.154;8.254;2023-03-03T16:36:31;29.53;;;13.70;;
4933;SDS011;2482;49.154;8.254;2023-03-03T16:39:35;21.70;;;12.17;;
4933;SDS011;2482;49.154;8.254;2023-03-03T16:42:34;25.17;;;13.70;;
4933;SDS011;2482;49.154;8.254;2023-03-03T16:50:38;25.87;;;13.10;;
4933;SDS011;2482;49.154;8.254;2023-03-03T16:53:18;25.97;;;12.90;;
4933;SDS011;2482;49.154;8.254;2023-03-03T17:04:29;21.20;;;12.83;;
4933;SDS011;2482;49.154;8.254;2023-03-03T17:13:05;20.53;;;11.87;;
4933;SDS011;2482;49.154;8.254;2023-03-03T17:16:00;20.97;;;12.73;;
4933;SDS011;2482;49.154;8.254;2023-03-03T17:19:00;20.00;;;10.93;;
4933;SDS011;2482;49.154;8.254;2023-03-03T17:30:47;21.30;;;11.23;;
4933;SDS011;2482;49.154;8.254;2023-03-03T17:39:38;24.27;;;11.77;;
4933;SDS011;2482;49.154;8.254;2023-03-03T17:45:13;34.43;;;12.07;;
4933;SDS011;2482;49.154;8.254;2023-03-03T18:05:24;20.70;;;12.97;;
4933;SDS011;2482;49.154;8.254;2023-03-03T18:10:30;19.67;;;11.77;;
4933;SDS011;2482;49.154;8.254;2023-03-03T18:13:36;20.93;;;12.37;;
4933;SDS011;2482;49.154;8.254;2023-03-03T18:22:19;26.10;;;12.77;;
4933;SDS011;2482;49.154;8.254;2023-03-03T18:25:00;23.40;;;12.40;;
4933;SDS011;2482;49.154;8.254;2023-03-03T18:27:35;21.13;;;12.73;;
4933;SDS011;2482;49.154;8.254;2023-03-03T18:32:58;22.53;;;13.00;;
4933;SDS011;2482;49.154;8.254;2023-03-03T18:40:51;30.37;;;13.13;;
4933;SDS011;2482;49.154;8.254;2023-03-03T19:04:47;24.43;;;14.53;;
4933;SDS011;2482;49.154;8.254;2023-03-03T19:18:12;25.30;;;13.63;;
4933;SDS011;2482;49.154;8.254;2023-03-03T19:37:30;27.17;;;14.47;;
4933;SDS011;2482;49.154;8.254;2023-03-03T19:46:36;25.07;;;13.60;;
4933;SDS011;2482;49.154;8.254;2023-03-03T19:52:07;27.87;;;14.80;;
4933;SDS011;2482;49.154;8.254;2023-03-03T20:06:18;29.73;;;16.27;;
4933;SDS011;2482;49.154;8.254;2023-03-03T20:18:52;27.40;;;16.40;;
4933;SDS011;2482;49.154;8.254;2023-03-03T20:27:33;23.93;;;14.60;;
4933;SDS011;2482;49.154;8.254;2023-03-03T20:39:18;27.10;;;15.43;;
4933;SDS011;2482;49.154;8.254;2023-03-03T20:42:17;27.30;;;14.70;;
4933;SDS011;2482;49.154;8.254;2023-03-03T20:50:33;27.77;;;15.60;;
4933;SDS011;2482;49.154;8.254;2023-03-03T20:56:43;26.87;;;15.20;;
4933;SDS011;2482;49.154;8.254;2023-03-03T21:02:14;27.03;;;15.93;;
4933;SDS011;2482;49.154;8.254;2023-03-03T21:05:13;26.63;;;14.73;;
4933;SDS011;2482;49.154;8.254;2023-03-03T21:10:33;26.20;;;15.10;;
4933;SDS011;2482;49.154;8.254;2023-03-03T21:16:11;24.23;;;13.53;;
4933;SDS011;2482;49.154;8.254;2023-03-03T21:19:22;23.47;;;14.27;;
4933;SDS011;2482;49.154;8.254;2023-03-03T21:21:54;28.00;;;14.77;;
4933;SDS011;2482;49.154;8.254;2023-03-03T21:27:33;24.23;;;13.70;;
4933;SDS011;2482;49.154;8.254;2023-03-03T21:32:40;28.13;;;15.10;;
4933;SDS011;2482;49.154;8.254;2023-03-03T21:37:51;24.60;;;14.20;;
4933;SDS011;2482;49.154;8.254;2023-03-03T21:42:53;31.40;;;16.90;;
4933;SDS011;2482;49.154;8.254;2023-03-03T21:45:24;28.33;;;14.77;;
4933;SDS011;2482;49.154;8.254;2023-03-03T21:47:52;28.33;;;14.70;;
4933;SDS011;2482;49.154;8.254;2023-03-03T21:50:26;26.20;;;14.33;;
4933;SDS011;2482;49.154;8.254;2023-03-03T21:52:56;23.87;;;14.07;;
4933;SDS011;2482;49.154;8.254;2023-03-03T21:55:23;27.20;;;15.67;;
4933;SDS011;2482;49.154;8.254;2023-03-03T21:57:52;26.70;;;13.80;;
4933;SDS011;2482;49.154;8.254;2023-03-03T22:00:19;27.53;;;16.20;;
4933;SDS011;2482;49.154;8.254;2023-03-03T22:02:47;26.40;;;14.57;;
4933;SDS011;2482;49.154;8.254;2023-03-03T22:05:14;30.53;;;14.50;;
4933;SDS011;2482;49.154;8.254;2023-03-03T22:07:41;26.03;;;15.27;;
4933;SDS011;2482;49.154;8.254;2023-03-03T22:10:08;27.93;;;15.20;;
4933;SDS011;2482;49.154;8.254;2023-03-03T22:12:36;26.57;;;14.50;;
4933;SDS011;2482;49.154;8.254;2023-03-03T22:15:03;28.37;;;15.63;;
4933;SDS011;2482;49.154;8.254;2023-03-03T22:17:30;32.07;;;16.57;;
4933;SDS011;2482;49.154;8.254;2023-03-03T22:19:57;27.97;;;15.47;;
4933;SDS011;2482;49.154;8.254;2023-03-03T22:22:24;37.97;;;15.63;;
4933;SDS011;2482;49.154;8.254;2023-03-03T22:24:51;25.97;;;14.93;;
4933;SDS011;2482;49.154;8.254;2023-03-03T22:27:19;27.77;;;14.20;;
4933;SDS011;2482;49.154;8.254;2023-03-03T22:29:45;28.43;;;14.47;;
4933;SDS011;2482;49.154;8.254;2023-03-03T22:32:12;28.97;;;15.27;;
4933;SDS011;2482;49.154;8.254;2023-03-03T22:34:40;29.73;;;15.83;;
4933;SDS011;2482;49.154;8.254;2023-03-03T22:37:07;26.53;;;16.10;;
4933;SDS011;2482;49.154;8.254;2023-03-03T22:39:34;32.30;;;17.73;;
4933;SDS011;2482;49.154;8.254;2023-03-03T22:42:01;26.77;;;15.70;;
4933;SDS011;2482;49.154;8.254;2023-03-03T22:44:27;32.47;;;17.40;;
4933;SDS011;2482;49.154;8.254;2023-03-03T22:46:54;31.20;;;18.00;;
4933;SDS011;2482;49.154;8.254;2023-03-03T22:49:21;34.10;;;17.97;;
4933;SDS011;2482;49.154;8.254;2023-03-03T22:51:48;36.47;;;18.40;;
4933;SDS011;2482;49.154;8.254;2023-03-03T22:54:15;30.23;;;17.50;;
4933;SDS011;2482;49.154;8.254;2023-03-03T22:56:42;37.80;;;19.47;;
4933;SDS011;2482;49.154;8.254;2023-03-03T22:59:09;36.90;;;19.70;;
4933;SDS011;2482;49.154;8.254;2023-03-03T23:01:36;35.00;;;18.17;;
4933;SDS011;2482;49.154;8.254;2023-03-03T23:04:03;36.80;;;20.57;;
4933;SDS011;2482;49.154;8.254;2023-03-03T23:06:30;41.83;;;20.70;;
4933;SDS011;2482;49.154;8.254;2023-03-03T23:08:57;37.97;;;20.03;;
4933;SDS011;2482;49.154;8.254;2023-03-03T23:11:24;34.10;;;19.77;;
4933;SDS011;2482;49.154;8.254;2023-03-03T23:13:52;42.43;;;21.60;;
4933;SDS011;2482;49.154;8.254;2023-03-03T23:16:19;38.03;;;21.33;;
4933;SDS011;2482;49.154;8.254;2023-03-03T23:18:46;36.87;;;20.80;;
4933;SDS011;2482;49.154;8.254;2023-03-03T23:21:13;43.73;;;20.80;;
4933;SDS011;2482;49.154;8.254;2023-03-03T23:23:40;38.07;;;20.50;;
4933;SDS011;2482;49.154;8.254;2023-03-03T23:26:07;44.47;;;20.60;;
4933;SDS011;2482;49.154;8.254;2023-03-03T23:28:34;38.90;;;20.97;;
4933;SDS011;2482;49.154;8.254;2023-03-03T23:31:01;40.27;;;20.27;;
4933;SDS011;2482;49.154;8.254;2023-03-03T23:33:28;41.10;;;21.20;;
4933;SDS011;2482;49.154;8.254;2023-03-03T23:35:55;40.73;;;21.30;;